createdAt,value
2018-01-19T00:02:24.152Z,12.47
2018-01-19T00:04:52.388Z,12.60
2018-01-19T00:07:20.671Z,13.37
2018-01-19T00:09:48.937Z,12.07
2018-01-19T00:12:17.973Z,12.43
2018-01-19T00:14:46.313Z,12.03
2018-01-19T00:17:14.568Z,12.33
2018-01-19T00:19:42.808Z,11.57
2018-01-19T00:22:11.069Z,12.10
2018-01-19T00:24:39.305Z,13.70
2018-01-19T00:27:07.540Z,15.67
2018-01-19T00:29:35.813Z,16.77
2018-01-19T00:32:04.045Z,12.53
2018-01-19T00:34:32.293Z,11.90
2018-01-19T00:37:01.356Z,13.20
2018-01-19T00:39:29.662Z,11.90
2018-01-19T00:41:57.913Z,13.20
2018-01-19T00:44:26.178Z,12.50
2018-01-19T00:46:54.426Z,11.73
2018-01-19T00:49:22.664Z,12.37
2018-01-19T00:51:51.749Z,12.83
2018-01-19T00:54:19.984Z,12.27
2018-01-19T00:56:48.244Z,12.43
2018-01-19T00:59:17.327Z,11.77
2018-01-19T01:01:46.502Z,11.80
2018-01-19T01:04:14.732Z,11.10
2018-01-19T01:06:42.998Z,11.90
2018-01-19T01:09:12.153Z,11.40
2018-01-19T01:11:41.168Z,10.83
2018-01-19T01:14:09.522Z,10.90
2018-01-19T01:16:38.525Z,11.07
2018-01-19T01:19:07.557Z,11.07
2018-01-19T01:21:36.674Z,11.60
2018-01-19T01:24:04.927Z,10.63
2018-01-19T01:26:33.307Z,10.70
2018-01-19T01:29:01.568Z,10.67
2018-01-19T01:31:29.813Z,10.60
2018-01-19T01:33:58.814Z,11.13
2018-01-19T01:36:27.851Z,11.93
2018-01-19T01:38:56.157Z,11.20
2018-01-19T01:41:24.552Z,11.87
2018-01-19T01:43:53.014Z,11.93
2018-01-19T01:46:21.255Z,11.17
2018-01-19T01:49:01.400Z,10.03
2018-01-19T01:51:29.691Z,9.30
2018-01-19T01:53:57.962Z,10.93
2018-01-19T01:56:26.219Z,9.73
2018-01-19T01:58:54.477Z,10.20
2018-01-19T02:01:23.492Z,9.87
2018-01-19T02:03:51.848Z,10.03
2018-01-19T02:06:20.864Z,10.70
2018-01-19T02:08:49.894Z,10.87
2018-01-19T02:11:18.156Z,10.47
2018-01-19T02:13:46.393Z,10.73
2018-01-19T02:16:15.416Z,11.23
2018-01-19T02:18:43.801Z,10.40
2018-01-19T02:21:12.100Z,10.43
2018-01-19T02:23:41.097Z,9.77
2018-01-19T02:26:09.508Z,10.73
2018-01-19T02:28:38.510Z,10.73
2018-01-19T02:31:07.521Z,10.47
2018-01-19T02:33:35.835Z,10.67
2018-01-19T02:36:04.112Z,10.20
2018-01-19T02:38:32.464Z,9.93
2018-01-19T02:41:00.773Z,11.10
2018-01-19T02:43:29.969Z,11.27
2018-01-19T02:45:58.997Z,11.37
2018-01-19T02:48:28.089Z,10.73
2018-01-19T02:50:57.094Z,11.00
2018-01-19T02:53:26.124Z,11.70
2018-01-19T02:55:54.486Z,11.27
2018-01-19T02:58:22.770Z,10.83
2018-01-19T03:00:51.799Z,10.87
2018-01-19T03:03:20.060Z,10.10
2018-01-19T03:05:48.445Z,11.30
2018-01-19T03:08:16.744Z,10.30
2018-01-19T03:10:45.817Z,11.40
2018-01-19T03:13:14.122Z,9.83
2018-01-19T03:15:42.398Z,10.63
2018-01-19T03:18:10.693Z,10.23
2018-01-19T03:20:39.708Z,10.13
2018-01-19T03:23:07.932Z,10.40
2018-01-19T03:25:36.281Z,11.77
2018-01-19T03:28:04.649Z,10.70
2018-01-19T03:30:33.020Z,9.63
2018-01-19T03:33:01.313Z,11.23
2018-01-19T03:35:29.551Z,12.23
2018-01-19T03:37:58.577Z,10.53
2018-01-19T03:40:26.897Z,10.70
2018-01-19T03:42:55.904Z,10.27
2018-01-19T03:45:25.012Z,10.70
2018-01-19T03:47:54.093Z,10.50
2018-01-19T03:50:22.414Z,10.97
2018-01-19T03:52:50.684Z,11.23
2018-01-19T03:55:19.017Z,11.67
2018-01-19T03:57:47.392Z,12.47
2018-01-19T04:00:15.652Z,13.43
2018-01-19T04:02:45.292Z,11.53
2018-01-19T04:05:14.529Z,11.53
2018-01-19T04:07:43.529Z,11.23
2018-01-19T04:10:11.860Z,10.43
2018-01-19T04:12:40.170Z,11.70
2018-01-19T04:15:08.400Z,11.90
2018-01-19T04:17:37.516Z,11.57
2018-01-19T04:20:05.772Z,12.07
2018-01-19T04:22:34.061Z,11.60
2018-01-19T04:25:02.337Z,11.83
2018-01-19T04:27:30.593Z,12.77
2018-01-19T04:29:58.938Z,13.43
2018-01-19T04:32:27.229Z,12.67
2018-01-19T04:34:55.654Z,11.30
2018-01-19T04:37:24.022Z,12.40
2018-01-19T04:39:53.073Z,12.47
2018-01-19T04:42:21.397Z,13.17
2018-01-19T04:44:49.685Z,12.97
2018-01-19T04:47:18.241Z,14.77
2018-01-19T04:49:46.600Z,13.53
2018-01-19T04:52:14.839Z,14.03
2018-01-19T04:54:43.188Z,13.03
2018-01-19T04:57:11.637Z,13.97
2018-01-19T04:59:40.054Z,12.37
2018-01-19T05:02:08.409Z,13.43
2018-01-19T05:04:36.668Z,12.80
2018-01-19T05:07:04.967Z,12.67
2018-01-19T05:09:33.286Z,12.53
2018-01-19T05:12:01.537Z,12.70
2018-01-19T05:14:29.803Z,12.50
2018-01-19T05:16:58.048Z,12.67
2018-01-19T05:19:26.348Z,13.37
2018-01-19T05:21:54.644Z,12.53
2018-01-19T05:24:23.759Z,13.90
2018-01-19T05:26:52.872Z,9.97
2018-01-19T05:29:21.114Z,13.80
2018-01-19T05:31:50.145Z,11.77
2018-01-19T05:34:18.488Z,10.40
2018-01-19T05:36:47.550Z,12.23
2018-01-19T05:39:15.829Z,13.50
2018-01-19T05:41:44.102Z,11.93
2018-01-19T05:44:12.370Z,12.07
2018-01-19T05:46:40.698Z,13.40
2018-01-19T05:49:09.700Z,11.50
2018-01-19T05:51:38.188Z,10.30
2018-01-19T05:54:07.256Z,13.17
2018-01-19T05:56:36.282Z,12.77
2018-01-19T05:59:04.512Z,12.03
2018-01-19T06:01:32.782Z,11.43
2018-01-19T06:04:01.031Z,11.40
2018-01-19T06:06:29.269Z,11.23
2018-01-19T06:08:57.561Z,12.43
2018-01-19T06:11:26.040Z,10.47
2018-01-19T06:13:54.277Z,11.87
2018-01-19T06:16:22.539Z,11.53
2018-01-19T06:18:50.852Z,11.00
2018-01-19T06:21:19.061Z,10.23
2018-01-19T06:23:47.344Z,12.63
2018-01-19T06:26:15.584Z,10.50
2018-01-19T06:28:43.904Z,9.90
2018-01-19T06:31:12.211Z,12.77
2018-01-19T06:33:40.477Z,12.17
2018-01-19T06:36:08.717Z,12.87
2018-01-19T06:38:36.977Z,12.47
2018-01-19T06:41:05.266Z,12.60
2018-01-19T06:43:33.500Z,12.47
2018-01-19T06:46:01.748Z,11.57
2018-01-19T06:48:29.996Z,11.10
2018-01-19T06:50:58.264Z,11.60
2018-01-19T06:53:26.640Z,12.27
2018-01-19T06:55:54.952Z,15.50
2018-01-19T06:58:23.192Z,16.67
2018-01-19T07:00:51.466Z,14.17
2018-01-19T07:03:19.745Z,12.93
2018-01-19T07:05:47.969Z,13.90
2018-01-19T07:08:16.260Z,13.57
2018-01-19T07:10:45.320Z,15.07
2018-01-19T07:13:13.669Z,12.97
2018-01-19T07:15:42.719Z,12.03
2018-01-19T07:18:10.960Z,11.73
2018-01-19T07:20:39.206Z,11.10
2018-01-19T07:23:07.481Z,11.07
2018-01-19T07:25:35.726Z,11.70
2018-01-19T07:28:03.973Z,11.70
2018-01-19T07:30:32.268Z,12.77
2018-01-19T07:33:00.585Z,10.43
2018-01-19T07:35:29.599Z,11.10
2018-01-19T07:37:57.962Z,10.97
2018-01-19T07:40:26.385Z,11.83
2018-01-19T07:42:54.608Z,10.57
2018-01-19T07:45:22.917Z,10.83
2018-01-19T07:47:51.213Z,11.13
2018-01-19T07:50:19.455Z,10.73
2018-01-19T07:52:47.753Z,11.20
2018-01-19T07:55:16.017Z,10.50
2018-01-19T07:57:44.330Z,11.90
2018-01-19T08:00:12.608Z,10.67
2018-01-19T08:02:40.868Z,10.40
2018-01-19T08:05:09.159Z,9.87
2018-01-19T08:07:37.396Z,10.10
2018-01-19T08:10:05.628Z,9.67
2018-01-19T08:12:33.856Z,10.20
2018-01-19T08:15:02.137Z,10.17
2018-01-19T08:17:30.388Z,10.30
2018-01-19T08:19:58.648Z,10.63
2018-01-19T08:22:27.774Z,10.13
2018-01-19T08:24:56.098Z,11.10
2018-01-19T08:27:24.456Z,11.63
2018-01-19T08:29:52.768Z,10.40
2018-01-19T08:32:21.778Z,10.63
2018-01-19T08:34:50.764Z,10.57
2018-01-19T08:37:19.780Z,9.93
2018-01-19T08:39:48.020Z,10.60
2018-01-19T08:42:17.048Z,10.60
2018-01-19T08:44:45.349Z,10.60
2018-01-19T08:47:13.619Z,10.27
2018-01-19T08:49:41.877Z,10.63
2018-01-19T08:52:10.149Z,10.20
2018-01-19T08:54:38.396Z,9.47
2018-01-19T08:57:07.406Z,9.80
2018-01-19T08:59:36.454Z,9.80
2018-01-19T09:02:04.969Z,10.40
2018-01-19T09:04:33.164Z,10.10
2018-01-19T09:07:01.480Z,9.77
2018-01-19T09:09:29.709Z,9.60
2018-01-19T09:11:58.728Z,9.97
2018-01-19T09:14:26.992Z,10.00
2018-01-19T09:16:56.450Z,9.60
2018-01-19T09:19:24.705Z,9.30
2018-01-19T09:21:52.950Z,9.40
2018-01-19T09:24:21.186Z,10.03
2018-01-19T09:26:49.438Z,9.90
2018-01-19T09:29:17.827Z,9.53
2018-01-19T09:31:46.072Z,9.87
2018-01-19T09:34:14.320Z,10.00
2018-01-19T09:36:42.645Z,9.90
2018-01-19T09:39:11.003Z,10.37
2018-01-19T09:41:39.225Z,9.90
2018-01-19T09:44:07.518Z,9.73
2018-01-19T09:46:36.516Z,10.20
2018-01-19T09:49:05.545Z,9.47
2018-01-19T09:51:35.054Z,9.87
2018-01-19T09:54:03.288Z,9.60
2018-01-19T09:56:32.292Z,9.27
2018-01-19T09:59:00.582Z,10.17
2018-01-19T10:01:28.876Z,10.10
2018-01-19T10:03:57.116Z,9.33
2018-01-19T10:06:26.882Z,9.23
2018-01-19T10:08:57.518Z,9.80
2018-01-19T10:11:26.036Z,9.33
2018-01-19T10:13:54.372Z,9.20
2018-01-19T10:16:22.698Z,9.40
2018-01-19T10:18:51.845Z,9.50
2018-01-19T10:21:20.120Z,9.43
2018-01-19T10:23:48.520Z,9.70
2018-01-19T10:26:16.760Z,9.83
2018-01-19T10:28:45.017Z,9.90
2018-01-19T10:31:14.110Z,9.57
2018-01-19T10:33:42.452Z,8.90
2018-01-19T10:36:10.789Z,8.23
2018-01-19T10:38:39.801Z,7.80
2018-01-19T10:41:08.026Z,7.63
2018-01-19T10:43:36.310Z,8.43
2018-01-19T10:46:04.565Z,8.50
2018-01-19T10:48:32.821Z,8.90
2018-01-19T10:51:03.390Z,8.73
2018-01-19T10:53:31.592Z,8.80
2018-01-19T10:55:59.880Z,8.70
2018-01-19T10:58:28.212Z,9.77
2018-01-19T11:00:56.459Z,9.30
2018-01-19T11:03:24.717Z,9.50
2018-01-19T11:05:53.740Z,9.30
2018-01-19T11:08:21.974Z,8.90
2018-01-19T11:10:50.230Z,8.43
2018-01-19T11:13:18.488Z,9.10
2018-01-19T11:15:47.492Z,8.80
2018-01-19T11:18:16.500Z,9.00
2018-01-19T11:20:45.713Z,9.13
2018-01-19T11:23:14.024Z,8.80
2018-01-19T11:25:43.033Z,8.77
2018-01-19T11:28:11.296Z,8.67
2018-01-19T11:30:40.304Z,9.00
2018-01-19T11:33:08.653Z,9.40
2018-01-19T11:35:36.924Z,8.70
2018-01-19T11:38:05.205Z,9.03
2018-01-19T11:40:33.428Z,8.60
2018-01-19T11:43:01.797Z,9.03
2018-01-19T11:45:30.146Z,9.50
2018-01-19T11:47:59.145Z,8.70
2018-01-19T11:50:28.159Z,8.97
2018-01-19T11:52:56.397Z,9.30
2018-01-19T11:55:24.660Z,8.53
2018-01-19T11:57:52.928Z,8.80
2018-01-19T12:00:21.241Z,9.20
2018-01-19T12:02:50.257Z,8.70
2018-01-19T12:05:18.602Z,9.10
2018-01-19T12:07:47.625Z,8.60
2018-01-19T12:10:15.901Z,8.07
2018-01-19T12:12:44.159Z,8.80
2018-01-19T12:15:13.213Z,8.70
2018-01-19T12:17:41.408Z,8.53
2018-01-19T12:20:09.690Z,9.00
2018-01-19T12:22:37.922Z,9.27
2018-01-19T12:25:06.165Z,8.70
2018-01-19T12:27:35.562Z,8.90
2018-01-19T12:30:03.862Z,8.90
2018-01-19T12:32:32.167Z,9.13
2018-01-19T12:35:00.538Z,9.57
2018-01-19T12:37:28.764Z,9.17
2018-01-19T12:39:57.145Z,9.17
2018-01-19T12:42:25.707Z,9.33
2018-01-19T12:44:53.920Z,9.13
2018-01-19T12:47:23.016Z,8.97
2018-01-19T12:49:52.136Z,9.10
2018-01-19T12:52:20.393Z,9.10
2018-01-19T12:54:49.414Z,8.57
2018-01-19T12:57:17.752Z,9.20
2018-01-19T12:59:45.972Z,9.40
2018-01-19T13:02:14.431Z,9.50
2018-01-19T13:04:42.780Z,9.80
2018-01-19T13:07:11.031Z,9.33
2018-01-19T13:09:39.292Z,9.43
2018-01-19T13:12:07.729Z,9.20
2018-01-19T13:14:36.833Z,9.00
2018-01-19T13:17:05.180Z,9.53
2018-01-19T13:19:33.448Z,10.20
2018-01-19T13:22:01.745Z,10.33
2018-01-19T13:24:30.097Z,10.53
2018-01-19T13:26:58.549Z,10.10
2018-01-19T13:29:27.826Z,11.13
2018-01-19T13:31:56.828Z,10.37
2018-01-19T13:34:25.469Z,10.67
2018-01-19T13:36:53.854Z,10.40
2018-01-19T13:39:22.141Z,9.87
2018-01-19T13:41:51.202Z,10.20
2018-01-19T13:44:19.416Z,9.90
2018-01-19T13:46:48.425Z,9.97
2018-01-19T13:49:17.546Z,9.33
2018-01-19T13:51:45.752Z,9.87
2018-01-19T13:54:14.009Z,9.93
2018-01-19T13:56:42.288Z,9.57
2018-01-19T13:59:10.626Z,10.27
2018-01-19T14:01:38.893Z,9.33
2018-01-19T14:04:07.897Z,10.20
2018-01-19T14:06:36.129Z,10.63
2018-01-19T14:09:04.469Z,10.10
2018-01-19T14:11:32.731Z,11.17
2018-01-19T14:14:01.013Z,11.57
2018-01-19T14:16:29.264Z,10.20
2018-01-19T14:18:57.520Z,10.60
2018-01-19T14:21:25.823Z,9.83
2018-01-19T14:23:54.072Z,9.57
2018-01-19T14:26:22.332Z,9.40
2018-01-19T14:28:50.565Z,9.90
2018-01-19T14:31:18.832Z,10.23
2018-01-19T14:33:47.844Z,9.73
2018-01-19T14:36:16.117Z,9.90
2018-01-19T14:38:45.144Z,9.17
2018-01-19T14:41:14.664Z,10.00
2018-01-19T14:43:42.912Z,10.00
2018-01-19T14:46:11.172Z,10.23
2018-01-19T14:48:39.429Z,9.63
2018-01-19T14:51:08.425Z,9.70
2018-01-19T14:53:37.417Z,10.70
2018-01-19T14:56:05.784Z,10.60
2018-01-19T14:58:34.797Z,11.20
2018-01-19T15:01:03.034Z,10.43
2018-01-19T15:03:31.401Z,10.20
2018-01-19T15:05:59.590Z,10.33
2018-01-19T15:08:27.825Z,10.47
2018-01-19T15:10:56.100Z,9.67
2018-01-19T15:13:24.336Z,10.93
2018-01-19T15:15:58.913Z,10.50
2018-01-19T15:18:30.012Z,11.00
2018-01-19T15:20:59.557Z,13.47
2018-01-19T15:23:27.840Z,11.30
2018-01-19T15:25:56.172Z,10.50
2018-01-19T15:28:25.379Z,10.80
2018-01-19T15:30:53.696Z,11.17
2018-01-19T15:33:22.309Z,10.63
2018-01-19T15:35:51.294Z,10.70
2018-01-19T15:38:19.544Z,10.73
2018-01-19T15:40:47.828Z,10.67
2018-01-19T15:43:16.949Z,10.20
2018-01-19T15:45:45.208Z,11.03
2018-01-19T15:48:13.559Z,10.50
2018-01-19T15:50:41.816Z,9.50
2018-01-19T15:53:10.875Z,12.10
2018-01-19T15:55:39.182Z,10.23
2018-01-19T15:58:07.496Z,10.17
2018-01-19T16:00:35.756Z,9.33
2018-01-19T16:03:04.101Z,9.77
2018-01-19T16:05:32.469Z,10.73
2018-01-19T16:08:00.818Z,11.10
2018-01-19T16:10:29.257Z,11.43
2018-01-19T16:12:57.488Z,10.80
2018-01-19T16:15:25.760Z,10.60
2018-01-19T16:17:54.036Z,12.33
2018-01-19T16:20:22.292Z,11.43
2018-01-19T16:22:50.581Z,12.90
2018-01-19T16:25:18.856Z,12.23
2018-01-19T16:27:47.251Z,13.17
2018-01-19T16:30:15.837Z,14.47
2018-01-19T16:32:44.133Z,14.17
2018-01-19T16:35:12.543Z,14.90
2018-01-19T16:37:41.668Z,14.17
2018-01-19T16:40:09.946Z,13.30
2018-01-19T16:42:38.206Z,14.87
2018-01-19T16:45:06.471Z,14.67
2018-01-19T16:47:34.809Z,14.30
2018-01-19T16:50:03.056Z,15.37
2018-01-19T16:52:31.499Z,14.53
2018-01-19T16:54:59.950Z,15.47
2018-01-19T16:57:28.204Z,13.60
2018-01-19T16:59:56.466Z,13.50
2018-01-19T17:02:24.846Z,13.37
2018-01-19T17:04:53.246Z,11.73
2018-01-19T17:07:21.697Z,11.57
2018-01-19T17:09:49.985Z,11.93
2018-01-19T17:12:18.427Z,12.60
2018-01-19T17:17:21.547Z,11.97
2018-01-19T17:19:50.169Z,12.50
2018-01-19T17:22:18.431Z,12.17
2018-01-19T17:24:47.462Z,11.67
2018-01-19T17:27:15.750Z,12.53
2018-01-19T17:29:44.016Z,13.87
2018-01-19T17:32:13.447Z,13.87
2018-01-19T17:34:42.684Z,17.57
2018-01-19T17:37:11.053Z,16.23
2018-01-19T17:39:39.364Z,16.23
2018-01-19T17:42:07.633Z,14.53
2018-01-19T17:44:35.884Z,15.27
2018-01-19T17:47:04.275Z,12.90
2018-01-19T17:49:32.564Z,13.40
2018-01-19T17:52:00.837Z,12.33
2018-01-19T17:54:29.164Z,11.87
2018-01-19T17:56:57.403Z,12.97
2018-01-19T17:59:25.675Z,12.23
2018-01-19T18:01:54.017Z,11.23
2018-01-19T18:04:22.377Z,12.57
2018-01-19T18:06:51.389Z,11.87
2018-01-19T18:09:19.684Z,11.53
2018-01-19T18:11:47.946Z,12.30
2018-01-19T18:14:16.200Z,12.50
2018-01-19T18:16:44.502Z,13.40
2018-01-19T18:19:12.794Z,14.40
2018-01-19T18:21:41.068Z,15.13
2018-01-19T18:24:09.441Z,15.17
2018-01-19T18:26:37.692Z,13.30
2018-01-19T18:29:06.005Z,14.00
2018-01-19T18:31:34.269Z,13.90
2018-01-19T18:34:02.621Z,14.67
2018-01-19T18:36:31.775Z,18.63
2018-01-19T18:39:00.073Z,17.63
2018-01-19T18:41:28.304Z,15.67
2018-01-19T18:43:56.584Z,18.47
2018-01-19T18:46:24.860Z,19.53
2018-01-19T18:48:53.128Z,16.20
2018-01-19T18:51:21.374Z,17.83
2018-01-19T18:53:49.689Z,17.57
2018-01-19T18:56:18.052Z,17.57
2018-01-19T18:58:46.329Z,18.93
2018-01-19T19:01:14.598Z,17.13
2018-01-19T19:03:42.892Z,17.33
2018-01-19T19:06:11.217Z,16.47
2018-01-19T19:08:39.559Z,15.30
2018-01-19T19:11:07.957Z,14.37
2018-01-19T19:13:36.430Z,21.20
2018-01-19T19:16:04.731Z,19.27
2018-01-19T19:18:33.084Z,22.77
2018-01-19T19:21:01.405Z,19.20
2018-01-19T19:23:30.436Z,17.03
2018-01-19T19:25:58.709Z,15.97
2018-01-19T19:28:26.977Z,15.47
2018-01-19T19:30:55.267Z,14.87
2018-01-19T19:33:23.632Z,14.33
2018-01-19T19:35:52.009Z,15.27
2018-01-19T19:38:20.280Z,14.87
2018-01-19T19:40:48.705Z,13.93
2018-01-19T19:43:17.229Z,13.23
2018-01-19T19:45:46.348Z,12.90
2018-01-19T19:48:14.698Z,12.80
2018-01-19T19:50:43.140Z,13.50
2018-01-19T19:53:11.479Z,12.93
2018-01-19T19:55:40.476Z,13.73
2018-01-19T19:58:08.969Z,16.13
2018-01-19T20:00:37.401Z,12.93
2018-01-19T20:03:05.716Z,14.33
2018-01-19T20:05:34.873Z,14.17
2018-01-19T20:08:03.316Z,14.70
2018-01-19T20:10:32.184Z,14.73
2018-01-19T20:13:00.671Z,15.70
2018-01-19T20:15:30.185Z,15.07
2018-01-19T20:17:59.885Z,13.70
2018-01-19T20:20:29.224Z,13.27
2018-01-19T20:22:58.402Z,13.97
2018-01-19T20:25:26.910Z,13.93
2018-01-19T20:27:55.250Z,14.03
2018-01-19T20:30:24.158Z,14.63
2018-01-19T20:32:52.522Z,14.97
2018-01-19T20:35:21.237Z,13.77
2018-01-19T20:37:51.017Z,13.97
2018-01-19T20:40:19.280Z,14.37
2018-01-19T20:42:47.976Z,14.83
2018-01-19T20:45:16.604Z,14.93
2018-01-19T20:47:46.726Z,13.17
2018-01-19T20:50:15.131Z,13.17
2018-01-19T20:52:43.444Z,12.53
2018-01-19T20:55:12.195Z,13.13
2018-01-19T20:57:41.568Z,19.57
2018-01-19T21:00:13.979Z,22.37
2018-01-19T21:02:42.618Z,18.93
2018-01-19T21:05:11.911Z,16.97
2018-01-19T21:07:40.653Z,18.03
2018-01-19T21:10:09.952Z,19.90
2018-01-19T21:12:39.023Z,18.30
2018-01-19T21:15:07.861Z,20.23
2018-01-19T21:17:36.306Z,20.17
2018-01-19T21:20:05.946Z,20.03
2018-01-19T21:22:36.901Z,19.80
2018-01-19T21:25:06.367Z,21.53
2018-01-19T21:27:36.520Z,22.83
2018-01-19T21:30:05.943Z,18.17
2018-01-19T21:32:35.894Z,18.50
2018-01-19T21:35:04.739Z,16.30
2018-01-19T21:37:34.463Z,16.60
2018-01-19T21:40:03.166Z,16.20
2018-01-19T21:42:33.405Z,15.37
2018-01-19T21:45:03.116Z,14.87
2018-01-19T21:47:32.712Z,14.67
2018-01-19T21:50:01.800Z,16.57
2018-01-19T21:52:31.043Z,15.37
2018-01-19T21:54:59.822Z,16.40
2018-01-19T21:57:28.114Z,15.67
2018-01-19T21:59:56.510Z,14.73
2018-01-19T22:02:25.011Z,16.73
2018-01-19T22:04:54.127Z,16.00
2018-01-19T22:07:22.783Z,15.97
2018-01-19T22:12:18.636Z,16.07
2018-01-19T22:14:48.773Z,17.73
2018-01-19T22:17:16.988Z,17.17
2018-01-19T22:19:45.426Z,20.13
2018-01-19T22:22:14.656Z,17.40
2018-01-19T22:24:42.921Z,15.80
2018-01-19T22:27:11.210Z,16.87
2018-01-19T22:29:40.888Z,18.97
2018-01-19T22:32:09.175Z,16.10
2018-01-19T22:34:37.558Z,15.63
2018-01-19T22:37:06.679Z,16.97
2018-01-19T22:39:34.974Z,15.80
2018-01-19T22:42:03.370Z,15.67
2018-01-19T22:44:32.500Z,16.70
2018-01-19T22:47:00.736Z,15.07
2018-01-19T22:49:28.992Z,15.93
2018-01-19T22:51:57.370Z,16.80
2018-01-19T22:54:25.768Z,15.13
2018-01-19T22:56:54.070Z,16.17
2018-01-19T22:59:23.112Z,20.30
2018-01-19T23:01:51.921Z,20.90
2018-01-19T23:04:20.212Z,20.00
2018-01-19T23:06:48.644Z,19.97
2018-01-19T23:09:16.902Z,20.57
2018-01-19T23:11:45.898Z,19.40
2018-01-19T23:14:14.472Z,18.77
2018-01-19T23:16:43.549Z,23.03
2018-01-19T23:19:12.563Z,19.73
2018-01-19T23:21:41.589Z,21.17
2018-01-19T23:24:09.865Z,19.47
2018-01-19T23:26:38.128Z,20.60
2018-01-19T23:29:06.446Z,21.30
2018-01-19T23:31:34.742Z,20.37
2018-01-19T23:34:03.780Z,21.33
2018-01-19T23:36:32.065Z,19.00
2018-01-19T23:39:00.460Z,18.97
2018-01-19T23:41:28.952Z,20.70
2018-01-19T23:43:57.297Z,20.90
2018-01-19T23:46:25.520Z,21.57
2018-01-19T23:48:53.800Z,21.03
2018-01-19T23:51:22.840Z,21.37
2018-01-19T23:53:51.089Z,19.30
2018-01-19T23:56:19.356Z,21.00
2018-01-19T23:58:48.514Z,19.57
